Time;durP1;ratioP1;P1;durP2;ratioP2;P2;SDS_P1;SDS_P2;PMS_P1;PMS_P2;Temp;Humidity;BMP_temperature;BMP_pressure;BME280_temperature;BME280_humidity;BME280_pressure;Samples;Min_cycle;Max_cycle;Signal;HPM_P1;HPM_P2
2023/01/16 00:01:10;;;;;;;0.30;0.30;;;4.00;99.90;;;;;;5029902;28;20190;-81
2023/01/16 00:03:35;;;;;;;0.30;0.30;;;4.10;99.90;;;;;;5048917;28;20445;-81
2023/01/16 00:06:01;;;;;;;0.30;0.30;;;4.10;99.90;;;;;;5048639;28;20889;-81
2023/01/16 00:08:26;;;;;;;0.30;0.30;;;4.10;99.90;;;;;;5030269;28;20749;-81
2023/01/16 00:10:52;;;;;;;0.27;0.27;;;4.20;99.90;;;;;;5042430;28;20175;-81
2023/01/16 00:13:17;;;;;;;0.30;0.30;;;4.10;99.90;;;;;;5042439;28;20198;-81
2023/01/16 00:15:45;;;;;;;0.30;0.30;;;4.20;99.90;;;;;;5049045;28;20565;-81
2023/01/16 00:18:10;;;;;;;0.30;0.30;;;4.20;99.90;;;;;;5047546;28;20222;-81
2023/01/16 00:20:36;;;;;;;0.30;0.30;;;4.20;99.90;;;;;;5046294;28;20460;-81
2023/01/16 00:23:01;;;;;;;0.30;0.30;;;4.20;99.90;;;;;;5050832;28;20183;-81
2023/01/16 00:25:27;;;;;;;0.30;0.30;;;4.20;99.90;;;;;;5045532;28;20601;-81
2023/01/16 00:27:52;;;;;;;0.20;0.20;;;4.20;99.90;;;;;;5046699;28;20194;-81
2023/01/16 00:30:19;;;;;;;0.23;0.23;;;4.20;99.90;;;;;;5047623;28;20189;-81
2023/01/16 00:32:44;;;;;;;0.30;0.30;;;4.10;99.90;;;;;;5031453;28;20272;-81
2023/01/16 00:35:10;;;;;;;0.40;0.40;;;4.10;99.90;;;;;;5045590;28;20464;-80
2023/01/16 00:37:36;;;;;;;0.40;0.40;;;4.10;99.90;;;;;;5047192;28;20206;-81
2023/01/16 00:40:01;;;;;;;0.30;0.30;;;4.10;99.90;;;;;;5040868;28;20599;-81
2023/01/16 00:42:27;;;;;;;0.30;0.30;;;4.20;99.90;;;;;;5048942;28;20530;-81
2023/01/16 00:44:52;;;;;;;0.30;0.30;;;4.10;99.90;;;;;;5044651;28;20728;-81
2023/01/16 00:47:17;;;;;;;0.30;0.30;;;4.10;99.90;;;;;;5048937;28;20226;-81
2023/01/16 00:49:43;;;;;;;0.30;0.30;;;4.10;99.90;;;;;;5047353;28;20179;-81
2023/01/16 00:52:09;;;;;;;0.30;0.30;;;4.00;99.90;;;;;;5049698;28;20213;-81
2023/01/16 00:54:34;;;;;;;0.30;0.30;;;4.00;99.90;;;;;;5045772;28;20236;-81
2023/01/16 00:56:59;;;;;;;0.30;0.30;;;4.00;99.90;;;;;;5045867;28;20187;-81
2023/01/16 00:59:25;;;;;;;0.20;0.20;;;4.00;99.90;;;;;;5048167;28;20693;-80
2023/01/16 01:01:50;;;;;;;0.30;0.30;;;4.00;99.90;;;;;;5043872;28;20186;-81
2023/01/16 01:04:16;;;;;;;0.30;0.30;;;4.00;99.90;;;;;;5047964;28;20187;-81
2023/01/16 01:06:42;;;;;;;0.30;0.30;;;4.10;99.90;;;;;;5030489;28;20222;-81
2023/01/16 01:09:08;;;;;;;0.20;0.20;;;4.00;99.90;;;;;;5031698;28;20265;-81
2023/01/16 01:11:33;;;;;;;0.30;0.30;;;4.10;99.90;;;;;;5049324;28;20560;-81
2023/01/16 01:13:59;;;;;;;0.20;0.20;;;4.00;99.90;;;;;;5028599;28;20257;-81
2023/01/16 01:16:24;;;;;;;0.30;0.30;;;4.00;99.90;;;;;;5029999;28;20186;-81
2023/01/16 01:18:50;;;;;;;0.30;0.30;;;4.10;99.90;;;;;;5047964;28;20222;-81
2023/01/16 01:21:16;;;;;;;0.20;0.20;;;4.00;99.90;;;;;;5046026;28;22311;-81
2023/01/16 01:23:41;;;;;;;0.30;0.30;;;4.00;99.90;;;;;;5024632;28;20437;-81
2023/01/16 01:26:09;;;;;;;0.30;0.30;;;4.00;99.90;;;;;;5048215;28;20194;-81
2023/01/16 01:28:35;;;;;;;0.30;0.30;;;4.00;99.90;;;;;;5048043;28;20677;-81
2023/01/16 01:31:10;;;;;;;0.30;0.30;;;3.90;99.90;;;;;;5047000;28;20441;-81
2023/01/16 01:33:35;;;;;;;0.30;0.30;;;3.90;99.90;;;;;;5045789;28;20509;-81
2023/01/16 01:36:02;;;;;;;0.40;0.40;;;3.90;99.90;;;;;;5042989;28;20437;-81
2023/01/16 01:38:27;;;;;;;0.30;0.30;;;3.90;99.90;;;;;;5048079;28;20233;-81
2023/01/16 01:40:53;;;;;;;0.40;0.40;;;3.90;99.90;;;;;;5049305;28;20422;-81
2023/01/16 01:43:19;;;;;;;0.30;0.30;;;3.90;99.90;;;;;;5044697;28;20643;-81
2023/01/16 01:45:50;;;;;;;0.23;0.23;;;3.90;99.90;;;;;;5051160;28;20193;-81
2023/01/16 01:48:29;;;;;;;0.40;0.40;;;3.90;99.90;;;;;;5035150;28;21227;-81
2023/01/16 01:51:01;;;;;;;0.30;0.30;;;3.90;99.90;;;;;;5046350;28;20443;-81
2023/01/16 01:53:43;;;;;;;0.30;0.30;;;3.90;99.90;;;;;;5033385;28;20952;-81
2023/01/16 01:56:19;;;;;;;0.30;0.30;;;3.90;99.90;;;;;;5048348;28;20944;-81
2023/01/16 01:58:48;;;;;;;0.30;0.30;;;3.90;99.90;;;;;;5051182;28;20601;-81
2023/01/16 02:01:14;;;;;;;0.30;0.30;;;3.90;99.90;;;;;;5051073;28;21534;-80
2023/01/16 02:03:45;;;;;;;0.30;0.30;;;3.90;99.90;;;;;;5046040;28;20531;-81
2023/01/16 02:06:18;;;;;;;0.30;0.30;;;3.90;99.90;;;;;;5050109;28;20371;-80
2023/01/16 02:08:44;;;;;;;0.30;0.30;;;3.90;99.90;;;;;;5050327;28;20441;-80
2023/01/16 02:11:25;;;;;;;0.20;0.20;;;3.90;99.90;;;;;;5031795;28;20433;-80
2023/01/16 02:13:56;;;;;;;0.30;0.30;;;3.90;99.90;;;;;;5048772;28;20524;-80
2023/01/16 02:19:17;;;;;;;0.30;0.30;;;3.90;99.90;;;;;;5049352;28;20490;-80
2023/01/16 02:22:03;;;;;;;0.30;0.30;;;3.90;99.90;;;;;;5050843;28;20441;-81
2023/01/16 02:25:27;;;;;;;0.30;0.30;;;3.90;99.90;;;;;;5050088;28;21293;-81
2023/01/16 02:28:25;;;;;;;0.33;0.33;;;3.90;99.90;;;;;;4928262;28;20469;-80
2023/01/16 02:31:03;;;;;;;0.30;0.30;;;3.90;99.90;;;;;;4946099;28;20445;-81
2023/01/16 02:33:47;;;;;;;0.40;0.40;;;3.90;99.90;;;;;;5042063;28;20448;-81
2023/01/16 02:36:25;;;;;;;0.20;0.20;;;4.00;99.90;;;;;;5050951;28;20482;-81
2023/01/16 02:39:27;;;;;;;0.30;0.30;;;4.00;99.90;;;;;;5049310;28;20527;-80
2023/01/16 02:42:10;;;;;;;0.30;0.30;;;4.00;99.90;;;;;;5047027;28;20967;-80
2023/01/16 02:44:51;;;;;;;0.20;0.20;;;4.00;99.90;;;;;;5050717;28;20479;-80
2023/01/16 02:47:42;;;;;;;0.30;0.30;;;4.00;99.90;;;;;;5050326;28;20449;-80
2023/01/16 02:50:27;;;;;;;0.30;0.30;;;4.00;99.90;;;;;;5042148;28;20480;-81
2023/01/16 02:53:12;;;;;;;0.40;0.40;;;4.00;99.90;;;;;;5049422;28;20445;-81
2023/01/16 02:55:52;;;;;;;0.30;0.30;;;4.00;99.90;;;;;;5045610;28;20969;-81
2023/01/16 02:58:19;;;;;;;0.33;0.33;;;4.00;99.90;;;;;;5032616;28;20528;-81
2023/01/16 03:00:53;;;;;;;0.30;0.30;;;4.00;99.90;;;;;;5047376;28;20449;-81
2023/01/16 03:03:36;;;;;;;0.30;0.30;;;4.00;99.90;;;;;;5049722;28;20531;-81
2023/01/16 03:06:26;;;;;;;0.30;0.30;;;4.00;99.90;;;;;;5048897;28;20473;-81
2023/01/16 03:09:11;;;;;;;0.30;0.30;;;4.00;99.90;;;;;;5007950;28;20969;-80
2023/01/16 03:11:53;;;;;;;0.30;0.30;;;4.00;99.90;;;;;;5049762;28;20973;-81
2023/01/16 03:14:36;;;;;;;0.30;0.30;;;4.00;99.90;;;;;;5049927;28;20437;-81
2023/01/16 03:17:17;;;;;;;0.23;0.23;;;4.00;99.90;;;;;;5030999;28;20483;-81
2023/01/16 03:20:02;;;;;;;0.30;0.30;;;4.00;99.90;;;;;;5046260;28;20457;-81
2023/01/16 03:22:41;;;;;;;0.30;0.30;;;4.00;99.90;;;;;;5048573;28;20941;-81
2023/01/16 03:25:23;;;;;;;0.30;0.30;;;3.90;99.90;;;;;;5047315;28;20441;-81
2023/01/16 03:27:56;;;;;;;0.30;0.30;;;3.90;99.90;;;;;;5029618;28;20949;-81
2023/01/16 03:30:31;;;;;;;0.30;0.30;;;3.90;99.90;;;;;;5043387;28;20449;-81
2023/01/16 03:33:02;;;;;;;0.30;0.30;;;3.90;99.90;;;;;;5048863;28;20448;-81
2023/01/16 03:35:43;;;;;;;0.30;0.30;;;3.90;99.90;;;;;;5048495;28;20969;-81
2023/01/16 03:38:12;;;;;;;0.30;0.30;;;3.90;99.90;;;;;;5048267;28;20480;-81
2023/01/16 03:40:42;;;;;;;0.37;0.37;;;3.90;99.90;;;;;;5049821;28;20441;-80
2023/01/16 03:43:10;;;;;;;0.20;0.20;;;3.90;99.90;;;;;;5049897;28;20813;-80
2023/01/16 03:45:58;;;;;;;0.30;0.30;;;3.90;99.90;;;;;;5046927;28;20441;-80
2023/01/16 03:48:38;;;;;;;0.30;0.30;;;3.90;99.90;;;;;;5051603;28;20421;-80
2023/01/16 03:51:07;;;;;;;0.30;0.30;;;3.90;99.90;;;;;;5030980;28;20456;-80
2023/01/16 03:53:36;;;;;;;0.30;0.30;;;3.90;99.90;;;;;;5046311;28;20534;-80
2023/01/16 03:56:20;;;;;;;0.30;0.30;;;3.90;99.90;;;;;;5048474;28;20448;-80
2023/01/16 03:58:48;;;;;;;0.33;0.33;;;3.90;99.90;;;;;;5033919;28;20573;-80
2023/01/16 04:01:41;;;;;;;0.30;0.30;;;4.00;99.90;;;;;;5046463;28;20456;-80
2023/01/16 04:04:14;;;;;;;0.30;0.30;;;4.00;99.90;;;;;;5050551;28;20449;-80
2023/01/16 04:06:58;;;;;;;0.30;0.30;;;4.00;99.90;;;;;;5026597;28;20474;-80
2023/01/16 04:09:38;;;;;;;0.30;0.30;;;4.00;99.90;;;;;;5045150;28;20448;-80
2023/01/16 04:12:05;;;;;;;0.20;0.20;;;4.00;99.90;;;;;;5045743;28;20925;-80
2023/01/16 04:14:34;;;;;;;0.30;0.30;;;4.00;99.90;;;;;;5048430;28;20449;-80
2023/01/16 04:17:01;;;;;;;0.30;0.30;;;4.00;99.90;;;;;;5030735;28;20536;-80
2023/01/16 04:19:28;;;;;;;0.27;0.27;;;4.10;99.90;;;;;;5048476;28;20453;-80
2023/01/16 04:21:53;;;;;;;0.27;0.27;;;4.00;99.90;;;;;;5034084;28;20441;-80
2023/01/16 04:24:19;;;;;;;0.30;0.30;;;4.00;99.90;;;;;;5049152;28;20457;-80
2023/01/16 04:26:44;;;;;;;0.37;0.37;;;4.00;99.90;;;;;;5049760;28;20218;-80
2023/01/16 04:29:10;;;;;;;0.30;0.30;;;4.00;99.90;;;;;;5048808;28;20210;-80
2023/01/16 04:31:36;;;;;;;0.30;0.30;;;4.00;99.90;;;;;;5048503;28;20300;-80
2023/01/16 04:34:01;;;;;;;0.40;0.40;;;4.00;99.90;;;;;;5049340;28;20280;-80
2023/01/16 04:36:27;;;;;;;0.30;0.30;;;4.00;99.90;;;;;;5029398;28;20233;-80
2023/01/16 04:38:52;;;;;;;0.40;0.40;;;4.00;99.90;;;;;;5049464;28;20745;-80
2023/01/16 04:41:35;;;;;;;0.30;0.30;;;4.00;99.90;;;;;;5047759;28;20197;-80
2023/01/16 04:44:08;;;;;;;0.30;0.30;;;4.00;99.90;;;;;;5048096;28;20207;-80
2023/01/16 04:46:34;;;;;;;0.30;0.30;;;4.00;99.90;;;;;;5041199;28;20453;-80
2023/01/16 04:48:59;;;;;;;0.30;0.30;;;4.10;99.90;;;;;;5047519;28;20448;-80
2023/01/16 04:51:25;;;;;;;0.30;0.30;;;4.00;99.90;;;;;;5045590;28;20587;-80
2023/01/16 04:53:51;;;;;;;0.30;0.30;;;4.10;99.90;;;;;;5049228;28;20273;-80
2023/01/16 04:56:17;;;;;;;0.30;0.30;;;4.10;99.90;;;;;;5048618;28;20547;-81
2023/01/16 04:58:42;;;;;;;0.30;0.30;;;4.00;99.90;;;;;;5048161;28;20218;-81
2023/01/16 05:01:08;;;;;;;0.30;0.30;;;4.00;99.90;;;;;;5047762;28;20194;-81
2023/01/16 05:03:33;;;;;;;0.30;0.30;;;4.10;99.90;;;;;;5046719;28;20183;-81
2023/01/16 05:05:58;;;;;;;0.30;0.30;;;4.10;99.90;;;;;;5023791;28;20721;-81
2023/01/16 05:08:27;;;;;;;0.20;0.20;;;4.00;99.90;;;;;;5044134;28;20214;-81
2023/01/16 05:10:53;;;;;;;0.30;0.30;;;4.00;99.90;;;;;;5030835;28;20193;-80
2023/01/16 05:13:19;;;;;;;0.30;0.30;;;4.00;99.90;;;;;;5029732;28;20445;-80
2023/01/16 05:15:44;;;;;;;0.30;0.30;;;3.90;99.90;;;;;;5029232;28;20434;-82
2023/01/16 05:18:11;;;;;;;0.30;0.30;;;4.00;99.90;;;;;;5031107;28;20686;-82
2023/01/16 05:20:37;;;;;;;0.40;0.40;;;3.90;99.90;;;;;;5045624;28;20237;-80
2023/01/16 05:23:03;;;;;;;0.20;0.20;;;3.80;99.90;;;;;;5045863;28;21057;-81
2023/01/16 05:25:28;;;;;;;0.27;0.27;;;3.80;99.90;;;;;;5038449;28;20849;-80
2023/01/16 05:27:54;;;;;;;0.30;0.30;;;3.80;99.90;;;;;;5043213;28;20262;-80
2023/01/16 05:30:20;;;;;;;0.33;0.33;;;3.70;99.90;;;;;;5026072;28;20249;-80
2023/01/16 05:32:45;;;;;;;0.30;0.30;;;3.70;99.90;;;;;;5040323;28;20647;-80
2023/01/16 05:35:11;;;;;;;0.40;0.40;;;3.60;99.90;;;;;;5048167;28;20198;-81
2023/01/16 05:37:36;;;;;;;0.40;0.40;;;3.60;99.90;;;;;;5028310;28;20676;-81
2023/01/16 05:40:03;;;;;;;0.40;0.40;;;3.60;99.90;;;;;;5046915;28;20199;-81
2023/01/16 05:42:28;;;;;;;0.30;0.30;;;3.60;99.90;;;;;;5049314;28;20187;-81
2023/01/16 05:44:54;;;;;;;0.30;0.30;;;3.50;99.90;;;;;;5049493;28;20502;-81
2023/01/16 05:47:20;;;;;;;0.30;0.30;;;3.50;99.90;;;;;;5038305;28;20188;-81
2023/01/16 05:49:46;;;;;;;0.40;0.40;;;3.50;99.90;;;;;;5032058;28;20276;-81
2023/01/16 05:52:13;;;;;;;0.30;0.30;;;3.50;99.90;;;;;;5044710;28;20506;-80
2023/01/16 05:54:38;;;;;;;0.30;0.30;;;3.50;99.90;;;;;;5047252;28;20498;-80
2023/01/16 05:57:04;;;;;;;0.20;0.20;;;3.50;99.90;;;;;;5043651;28;20449;-81
2023/01/16 05:59:30;;;;;;;0.20;0.20;;;3.50;99.90;;;;;;5024128;28;20244;-80
2023/01/16 06:01:56;;;;;;;0.30;0.30;;;3.50;99.90;;;;;;5043275;28;20187;-81
2023/01/16 06:04:22;;;;;;;0.30;0.30;;;3.50;99.90;;;;;;5047775;28;20948;-80
2023/01/16 06:06:48;;;;;;;0.30;0.30;;;3.50;99.90;;;;;;5044143;28;20481;-80
2023/01/16 06:09:14;;;;;;;0.30;0.30;;;3.50;99.90;;;;;;5046588;28;20511;-80
2023/01/16 06:11:39;;;;;;;0.20;0.20;;;3.60;99.90;;;;;;5040405;28;20198;-81
2023/01/16 06:14:05;;;;;;;0.30;0.30;;;3.60;99.90;;;;;;5024612;28;20178;-80
2023/01/16 06:16:31;;;;;;;0.30;0.30;;;3.60;99.90;;;;;;5021280;28;20194;-80
2023/01/16 06:18:57;;;;;;;0.30;0.30;;;3.60;99.90;;;;;;5044418;28;20223;-80
2023/01/16 06:21:22;;;;;;;0.30;0.30;;;3.60;99.90;;;;;;5047172;28;21447;-80
2023/01/16 06:23:48;;;;;;;0.40;0.40;;;3.60;99.90;;;;;;5045104;28;20742;-81
2023/01/16 06:26:13;;;;;;;0.33;0.33;;;3.70;99.90;;;;;;5047728;28;20187;-80
2023/01/16 06:28:39;;;;;;;0.33;0.33;;;3.70;99.90;;;;;;5048998;28;20269;-80
2023/01/16 06:31:05;;;;;;;0.40;0.40;;;3.70;99.90;;;;;;5047774;28;20179;-80
2023/01/16 06:33:31;;;;;;;0.40;0.40;;;3.70;99.90;;;;;;5044761;28;20278;-78
2023/01/16 06:35:57;;;;;;;0.30;0.30;;;3.70;99.90;;;;;;5044929;28;20532;-79
2023/01/16 06:38:23;;;;;;;0.30;0.30;;;3.70;99.90;;;;;;5048029;28;20268;-80
2023/01/16 06:40:48;;;;;;;0.20;0.20;;;3.70;99.90;;;;;;5050361;28;20190;-79
2023/01/16 06:43:16;;;;;;;0.30;0.30;;;3.70;99.90;;;;;;5051298;28;20497;-80
2023/01/16 06:45:42;;;;;;;0.30;0.30;;;3.70;99.90;;;;;;5027057;28;20580;-79
2023/01/16 06:48:07;;;;;;;0.33;0.33;;;3.80;99.90;;;;;;5043211;28;20447;-79
2023/01/16 06:50:33;;;;;;;0.30;0.30;;;3.80;99.90;;;;;;5051587;28;20489;-79
2023/01/16 06:52:59;;;;;;;0.30;0.30;;;3.80;99.90;;;;;;5044645;28;20195;-79
2023/01/16 06:55:24;;;;;;;0.40;0.40;;;3.70;99.90;;;;;;5045053;28;20274;-79
2023/01/16 06:57:50;;;;;;;0.30;0.30;;;3.80;99.90;;;;;;5032359;28;21016;-79
2023/01/16 07:00:16;;;;;;;0.30;0.30;;;3.80;99.90;;;;;;5046487;28;20289;-79
2023/01/16 07:02:41;;;;;;;0.30;0.30;;;3.80;99.90;;;;;;5046753;28;20198;-79
2023/01/16 07:05:09;;;;;;;0.30;0.30;;;3.80;99.90;;;;;;5045793;28;20503;-79
2023/01/16 07:07:35;;;;;;;0.30;0.30;;;3.80;99.90;;;;;;5028555;28;20191;-77
2023/01/16 07:10:02;;;;;;;0.40;0.40;;;3.80;99.90;;;;;;5041038;28;20452;-77
2023/01/16 07:12:28;;;;;;;0.30;0.30;;;3.80;99.90;;;;;;5036235;28;20561;-78
2023/01/16 07:23:28;;;;;;;0.30;0.30;;;3.80;99.90;;;;;;5042430;28;20448;-77
2023/01/16 07:25:55;;;;;;;0.33;0.33;;;3.70;99.90;;;;;;5044311;28;20449;-77
2023/01/16 07:28:21;;;;;;;0.30;0.30;;;3.80;99.90;;;;;;5043103;28;20437;-77
2023/01/16 07:30:48;;;;;;;0.30;0.30;;;3.80;99.90;;;;;;5045613;28;20453;-77
2023/01/16 07:33:15;;;;;;;0.30;0.30;;;3.70;99.90;;;;;;5043198;28;20252;-77
2023/01/16 07:35:40;;;;;;;0.30;0.30;;;3.80;99.90;;;;;;5039124;28;20468;-78
2023/01/16 07:38:06;;;;;;;0.40;0.40;;;3.80;99.90;;;;;;5048140;28;20580;-77
2023/01/16 07:40:31;;;;;;;0.30;0.30;;;3.80;99.90;;;;;;5043730;28;20182;-78
2023/01/16 07:42:57;;;;;;;0.40;0.40;;;3.80;99.90;;;;;;5047575;28;20194;-78
2023/01/16 07:45:22;;;;;;;0.40;0.40;;;3.90;99.90;;;;;;5043385;28;20190;-77
2023/01/16 07:47:48;;;;;;;0.30;0.30;;;3.90;99.90;;;;;;5047849;28;20244;-77
2023/01/16 07:50:14;;;;;;;0.40;0.40;;;3.90;99.90;;;;;;5044006;28;20761;-76
2023/01/16 07:52:39;;;;;;;0.30;0.30;;;3.80;99.90;;;;;;5042761;28;20186;-77
2023/01/16 07:55:05;;;;;;;0.20;0.20;;;3.80;99.90;;;;;;5041442;28;20179;-76
2023/01/16 07:57:30;;;;;;;0.30;0.30;;;3.80;99.90;;;;;;5039596;28;20211;-79
2023/01/16 07:59:56;;;;;;;0.30;0.30;;;3.80;99.90;;;;;;5043457;28;20629;-79
2023/01/16 08:02:22;;;;;;;0.30;0.30;;;3.80;99.90;;;;;;5046464;28;20175;-80
2023/01/16 08:04:47;;;;;;;0.30;0.30;;;3.80;99.90;;;;;;5037799;28;20702;-79
2023/01/16 08:07:13;;;;;;;0.20;0.20;;;3.90;99.90;;;;;;5036319;28;20187;-79
2023/01/16 08:09:38;;;;;;;0.30;0.30;;;3.90;99.90;;;;;;5037780;28;20932;-79
2023/01/16 08:12:04;;;;;;;0.30;0.30;;;3.80;99.90;;;;;;5034136;28;20197;-77
2023/01/16 08:14:29;;;;;;;0.30;0.30;;;3.80;99.90;;;;;;5039437;28;20262;-78
2023/01/16 08:16:55;;;;;;;0.40;0.40;;;3.80;99.90;;;;;;5035826;28;20262;-77
2023/01/16 08:19:20;;;;;;;0.30;0.30;;;3.90;99.90;;;;;;5041587;28;20336;-77
2023/01/16 08:21:46;;;;;;;0.30;0.30;;;3.90;99.90;;;;;;5042420;28;20191;-79
2023/01/16 08:24:13;;;;;;;0.30;0.30;;;3.90;99.90;;;;;;5018511;28;20277;-79
2023/01/16 08:26:39;;;;;;;0.30;0.30;;;3.90;99.90;;;;;;5028830;28;20183;-80
2023/01/16 08:29:04;;;;;;;0.30;0.30;;;3.90;99.90;;;;;;5030156;28;20467;-79
2023/01/16 08:31:31;;;;;;;0.30;0.30;;;3.90;99.90;;;;;;5042470;28;20277;-79
2023/01/16 08:33:57;;;;;;;0.30;0.30;;;3.90;99.90;;;;;;5038927;28;20292;-79
2023/01/16 08:36:23;;;;;;;0.30;0.30;;;3.90;99.90;;;;;;5026684;28;20430;-80
2023/01/16 08:38:50;;;;;;;0.30;0.30;;;4.00;99.90;;;;;;5028379;28;20222;-80
2023/01/16 08:52:23;;;;;;;0.30;0.30;;;4.20;99.90;;;;;;5042879;28;20451;-80
2023/01/16 08:54:48;;;;;;;0.30;0.30;;;4.20;99.90;;;;;;5045915;28;20440;-80
2023/01/16 08:57:13;;;;;;;0.37;0.37;;;4.20;99.90;;;;;;5046929;28;20273;-79
2023/01/16 08:59:39;;;;;;;0.30;0.30;;;4.30;99.90;;;;;;5043237;28;20202;-79
2023/01/16 09:02:06;;;;;;;0.30;0.30;;;4.50;99.90;;;;;;5040080;28;20221;-79
2023/01/16 09:04:33;;;;;;;0.30;0.30;;;4.60;99.90;;;;;;5037827;28;20186;-79
2023/01/16 09:06:59;;;;;;;0.30;0.30;;;4.80;99.90;;;;;;5037682;28;20568;-79
2023/01/16 09:09:25;;;;;;;0.30;0.30;;;4.80;99.90;;;;;;5047344;28;20759;-79
2023/01/16 09:14:38;;;;;;;0.30;0.30;;;4.80;99.90;;;;;;5047797;28;20240;-79
2023/01/16 09:17:05;;;;;;;0.30;0.30;;;4.90;99.90;;;;;;5046974;28;20498;-79
2023/01/16 09:19:31;;;;;;;0.30;0.30;;;4.80;99.90;;;;;;5049681;28;20264;-79
2023/01/16 09:21:57;;;;;;;0.37;0.37;;;5.00;99.90;;;;;;5049718;28;20421;-76
2023/01/16 09:24:22;;;;;;;0.30;0.30;;;5.00;99.90;;;;;;5045514;28;20191;-76
2023/01/16 09:26:47;;;;;;;0.30;0.30;;;5.00;99.90;;;;;;5021534;28;20709;-77
2023/01/16 09:29:13;;;;;;;0.30;0.30;;;5.00;99.90;;;;;;5022035;28;20179;-76
2023/01/16 09:31:38;;;;;;;0.30;0.30;;;4.90;99.90;;;;;;5042493;28;20252;-76
2023/01/16 09:34:04;;;;;;;0.30;0.30;;;5.00;99.90;;;;;;5040859;28;20222;-77
2023/01/16 09:36:29;;;;;;;0.30;0.30;;;4.80;99.90;;;;;;5034296;28;20190;-76
2023/01/16 09:38:55;;;;;;;0.23;0.23;;;4.70;99.90;;;;;;5045002;28;20961;-79
2023/01/16 09:44:09;;;;;;;0.30;0.30;;;4.60;99.90;;;;;;5041763;28;20213;-80
2023/01/16 09:46:40;;;;;;;0.30;0.30;;;4.70;99.90;;;;;;5040629;28;20569;-79
2023/01/16 09:49:13;;;;;;;0.30;0.30;;;4.70;99.90;;;;;;5043953;28;20452;-80
2023/01/16 09:58:34;;;;;;;0.30;0.30;;;4.60;99.90;;;;;;5042990;28;20471;-79
2023/01/16 10:00:08;;;;;;;0.30;0.30;;;4.60;99.90;;;;;;5044042;28;20951;-78
2023/01/16 10:02:34;;;;;;;0.30;0.30;;;4.60;99.90;;;;;;5044221;28;20532;-78
2023/01/16 10:05:05;;;;;;;0.30;0.30;;;4.50;99.90;;;;;;5061479;28;20472;-78
2023/01/16 10:07:51;;;;;;;0.30;0.30;;;4.60;99.90;;;;;;5052359;28;21274;-80
2023/01/16 10:10:36;;;;;;;0.30;0.30;;;4.60;99.90;;;;;;5033549;28;20425;-80
2023/01/16 10:13:23;;;;;;;0.30;0.30;;;4.60;99.90;;;;;;5037884;28;20445;-80
2023/01/16 10:15:58;;;;;;;0.30;0.30;;;4.70;99.90;;;;;;5047468;28;20443;-77
2023/01/16 10:19:05;;;;;;;0.30;0.30;;;5.10;99.90;;;;;;5044588;28;20496;-77
2023/01/16 10:21:38;;;;;;;0.30;0.30;;;5.40;99.90;;;;;;5050455;28;20452;-77
2023/01/16 10:24:40;;;;;;;0.30;0.30;;;5.50;99.90;;;;;;5033615;28;20614;-78
2023/01/16 10:27:11;;;;;;;0.30;0.30;;;5.60;99.90;;;;;;5046767;28;20526;-78
2023/01/16 10:29:54;;;;;;;0.30;0.30;;;5.80;99.90;;;;;;5051521;28;20528;-78
2023/01/16 10:32:24;;;;;;;0.30;0.30;;;5.80;99.90;;;;;;5041485;28;20480;-78
2023/01/16 10:35:03;;;;;;;0.30;0.30;;;5.90;99.90;;;;;;5039619;28;20933;-78
2023/01/16 10:37:30;;;;;;;0.20;0.20;;;6.00;99.90;;;;;;5045177;28;20436;-78
2023/01/16 10:39:58;;;;;;;0.33;0.33;;;6.20;99.90;;;;;;5043882;28;20440;-78
2023/01/16 10:50:58;;;;;;;0.20;0.20;;;6.60;99.90;;;;;;5046850;28;20540;-78
2023/01/16 10:53:24;;;;;;;0.20;0.20;;;6.70;99.90;;;;;;5045925;28;20456;-78
2023/01/16 10:55:52;;;;;;;0.30;0.30;;;6.60;99.90;;;;;;5030133;28;20448;-78
2023/01/16 10:58:23;;;;;;;0.30;0.30;;;6.10;99.90;;;;;;5043896;28;20729;-78
2023/01/16 11:00:50;;;;;;;0.20;0.20;;;5.80;99.90;;;;;;5045234;28;20441;-77
2023/01/16 11:03:46;;;;;;;0.30;0.30;;;5.70;99.90;;;;;;5050174;28;20491;-77
2023/01/16 11:06:23;;;;;;;0.30;0.30;;;5.40;99.90;;;;;;5050379;28;20472;-79
2023/01/16 11:09:01;;;;;;;0.30;0.30;;;5.40;99.90;;;;;;5044766;28;20452;-77
2023/01/16 11:20:31;;;;;;;0.30;0.30;;;5.50;99.90;;;;;;5049768;28;20444;-81
2023/01/16 11:23:13;;;;;;;0.37;0.37;;;5.40;99.90;;;;;;5049223;28;20445;-82
2023/01/16 11:25:39;;;;;;;0.30;0.30;;;5.40;99.90;;;;;;5049613;28;20441;-82
2023/01/16 11:28:07;;;;;;;0.30;0.30;;;5.40;99.90;;;;;;5032280;28;20987;-80
2023/01/16 11:30:38;;;;;;;0.30;0.30;;;5.60;99.90;;;;;;5039205;28;20192;-78
2023/01/16 11:33:07;;;;;;;0.30;0.30;;;5.60;99.90;;;;;;5033043;28;20673;-79
2023/01/16 11:35:36;;;;;;;0.30;0.30;;;5.50;99.90;;;;;;5050548;28;20437;-81
2023/01/16 11:38:03;;;;;;;0.30;0.30;;;5.30;99.90;;;;;;5043054;28;20481;-81
2023/01/16 11:40:35;;;;;;;0.20;0.20;;;5.30;99.90;;;;;;5045563;28;20452;-80
2023/01/16 11:46:02;;;;;;;0.20;0.20;;;5.20;99.90;;;;;;5047047;28;20445;-80
2023/01/16 11:48:37;;;;;;;0.30;0.30;;;5.20;99.90;;;;;;5046190;28;20937;-79
2023/01/16 11:51:04;;;;;;;0.30;0.30;;;5.30;99.90;;;;;;5048668;28;20440;-79
2023/01/16 11:53:32;;;;;;;0.30;0.30;;;5.40;99.90;;;;;;5049653;28;20462;-79
2023/01/16 11:56:31;;;;;;;0.30;0.30;;;5.40;99.90;;;;;;5031518;28;20507;-79
2023/01/16 11:59:06;;;;;;;0.40;0.40;;;5.50;99.90;;;;;;5044487;28;20545;-77
2023/01/16 12:08:23;;;;;;;0.30;0.30;;;5.40;99.90;;;;;;4962640;28;20447;-78
2023/01/16 12:11:06;;;;;;;0.30;0.30;;;5.40;99.90;;;;;;5033681;28;20448;-78
2023/01/16 12:16:59;;;;;;;0.30;0.30;;;5.60;99.90;;;;;;5045471;28;20453;-80
2023/01/16 12:19:43;;;;;;;0.30;0.30;;;5.60;99.90;;;;;;5026987;28;20895;-80
2023/01/16 12:22:15;;;;;;;0.30;0.30;;;5.70;99.90;;;;;;5049153;28;20936;-79
2023/01/16 12:24:51;;;;;;;0.20;0.20;;;5.70;99.90;;;;;;5016238;28;20445;-79
2023/01/16 12:28:04;;;;;;;0.30;0.30;;;6.10;99.90;;;;;;5028758;28;21076;-80
2023/01/16 12:30:35;;;;;;;0.30;0.30;;;6.30;99.90;;;;;;5043639;28;20495;-79
2023/01/16 12:33:26;;;;;;;0.30;0.30;;;6.60;99.90;;;;;;5035374;28;21014;-79
2023/01/16 12:36:09;;;;;;;0.30;0.30;;;6.60;99.90;;;;;;5048508;28;20502;-79
2023/01/16 12:38:59;;;;;;;0.20;0.20;;;6.80;99.90;;;;;;5026574;28;20490;-79
2023/01/16 12:44:50;;;;;;;0.30;0.30;;;6.80;99.90;;;;;;5049562;28;20444;-79
2023/01/16 12:47:24;;;;;;;0.20;0.20;;;6.70;99.90;;;;;;5025974;28;20589;-80
2023/01/16 12:50:13;;;;;;;0.30;0.30;;;6.50;99.90;;;;;;5045868;28;20437;-80
2023/01/16 12:53:12;;;;;;;0.30;0.30;;;6.20;99.90;;;;;;5028087;28;20447;-79
2023/01/16 12:55:43;;;;;;;0.20;0.20;;;6.10;99.90;;;;;;5031918;28;20514;-80
2023/01/16 12:58:15;;;;;;;0.20;0.20;;;6.20;99.90;;;;;;5048503;28;20509;-80
2023/01/16 13:00:57;;;;;;;0.20;0.20;;;6.10;99.90;;;;;;5043589;28;20503;-79
2023/01/16 13:03:52;;;;;;;0.30;0.30;;;6.00;99.90;;;;;;5040379;28;20435;-78
2023/01/16 13:06:28;;;;;;;0.30;0.30;;;5.90;99.90;;;;;;5040342;28;20476;-78
2023/01/16 13:09:05;;;;;;;0.30;0.30;;;5.90;99.90;;;;;;5025235;28;20453;-78
2023/01/16 13:14:23;;;;;;;0.30;0.30;;;5.80;99.90;;;;;;5043176;28;20460;-78
2023/01/16 13:17:01;;;;;;;0.20;0.20;;;5.80;99.90;;;;;;5039296;28;20449;-78
2023/01/16 13:19:30;;;;;;;0.30;0.30;;;5.70;99.90;;;;;;5027518;28;20966;-78
2023/01/16 13:22:24;;;;;;;0.30;0.30;;;5.60;99.90;;;;;;5023549;28;20445;-78
2023/01/16 13:25:18;;;;;;;0.30;0.30;;;5.60;99.90;;;;;;5038523;28;20933;-78
2023/01/16 13:28:00;;;;;;;0.30;0.30;;;5.50;99.90;;;;;;5048439;28;20445;-77
2023/01/16 13:30:26;;;;;;;0.30;0.30;;;5.50;99.90;;;;;;5009835;28;20455;-78
2023/01/16 13:33:20;;;;;;;0.30;0.30;;;5.50;99.90;;;;;;5047730;28;20952;-78
2023/01/16 13:36:09;;;;;;;0.30;0.30;;;5.50;99.90;;;;;;5025142;28;20456;-78
2023/01/16 13:38:56;;;;;;;0.30;0.30;;;5.40;99.90;;;;;;5029789;28;20486;-78
2023/01/16 13:41:30;;;;;;;0.30;0.30;;;5.40;99.90;;;;;;5042899;28;20451;-78
2023/01/16 13:47:20;;;;;;;0.30;0.30;;;5.40;99.90;;;;;;5040984;28;20532;-78
2023/01/16 13:49:52;;;;;;;0.30;0.30;;;5.40;99.90;;;;;;5028065;28;20444;-79
2023/01/16 13:52:26;;;;;;;0.30;0.30;;;5.40;99.90;;;;;;5033340;28;20455;-79
2023/01/16 13:54:56;;;;;;;0.30;0.30;;;5.40;99.90;;;;;;5044886;28;20466;-77
2023/01/16 13:57:23;;;;;;;0.30;0.30;;;5.40;99.90;;;;;;5039989;28;20436;-78
2023/01/16 14:00:10;;;;;;;0.30;0.30;;;5.30;99.90;;;;;;5051788;28;20459;-77
2023/01/16 14:02:36;;;;;;;0.30;0.30;;;5.40;99.90;;;;;;5049082;28;20507;-78
2023/01/16 14:05:15;;;;;;;0.30;0.30;;;5.30;99.90;;;;;;5047057;28;20549;-78
2023/01/16 14:10:42;;;;;;;0.30;0.30;;;5.30;99.90;;;;;;5051259;28;20423;-77
2023/01/16 14:13:26;;;;;;;0.30;0.30;;;5.30;99.90;;;;;;5050566;28;20433;-78
2023/01/16 14:16:35;;;;;;;0.30;0.30;;;5.20;99.90;;;;;;5041026;28;20484;-78
2023/01/16 14:19:01;;;;;;;0.30;0.30;;;5.30;99.90;;;;;;5035515;28;20485;-78
2023/01/16 14:24:00;;;;;;;0.30;0.30;;;5.20;99.90;;;;;;5052431;28;20447;-78
2023/01/16 14:24:28;;;;;;;0.30;0.30;;;5.20;99.90;;;;;;5032895;28;20179;-79
2023/01/16 14:26:59;;;;;;;0.30;0.30;;;5.20;99.90;;;;;;5031260;28;20441;-81
2023/01/16 14:29:34;;;;;;;0.40;0.40;;;5.20;99.90;;;;;;5052207;28;20523;-80
2023/01/16 14:32:04;;;;;;;0.20;0.20;;;5.20;99.90;;;;;;5053066;28;20421;-81
2023/01/16 14:34:50;;;;;;;0.20;0.20;;;5.20;99.90;;;;;;5050853;28;20437;-78
2023/01/16 14:37:26;;;;;;;0.30;0.30;;;5.20;99.90;;;;;;5052975;28;20936;-78